Ceres, California
Current Conditions -  °F | °C
As of 11:53 PM on Monday 26 Jan 2015 (Local Time) from KMOD Reporting Station
Haze Haze  
Wind Chill: 46°   Ceiling: Unl
Heat Index: 49°   Visibility: 4mi
Dew Point: 46°   Wind: 7mph
Humidity: 90%   Direction: 120°ESE
Pressure: 30.01"   Gusts: NA
Location:  37.59°N, 120.95°W
Report Text: KMOD 270753Z AUTO 12006KT 4SM BR CLR 09/08 A3001 RMK AO2 SLP163 T00940078 401440017
Loading
Personal Weather Stations






























Interactive Weather Map New forecast layout! Learn more

10-Day Weather Forecast

Advertisements
Track Severe Weather on mobile